createdAt,value
2019-04-05T00:00:44.715Z,21.67
2019-04-05T00:03:12.143Z,23.73
2019-04-05T00:05:39.472Z,22.97
2019-04-05T00:08:06.801Z,24.50
2019-04-05T00:10:34.179Z,24.13
2019-04-05T00:13:01.580Z,20.20
2019-04-05T00:15:28.859Z,22.93
2019-04-05T00:17:56.176Z,20.87
2019-04-05T00:20:23.517Z,23.57
2019-04-05T00:22:50.891Z,20.30
2019-04-05T00:25:18.238Z,21.47
2019-04-05T00:27:45.604Z,22.27
2019-04-05T00:30:12.959Z,22.73
2019-04-05T00:32:40.253Z,22.63
2019-04-05T00:35:07.584Z,23.77
2019-04-05T00:37:34.947Z,23.00
2019-04-05T00:40:02.489Z,23.10
2019-04-05T00:42:29.832Z,20.93
2019-04-05T00:44:57.139Z,22.10
2019-04-05T00:47:24.478Z,25.33
2019-04-05T00:49:51.786Z,24.33
2019-04-05T00:52:19.127Z,22.80
2019-04-05T00:54:46.786Z,24.77
2019-04-05T00:57:14.136Z,24.93
2019-04-05T00:59:41.530Z,27.27
2019-04-05T01:02:08.876Z,24.07
2019-04-05T01:04:36.227Z,21.83
2019-04-05T01:07:03.657Z,26.93
2019-04-05T01:09:31.019Z,26.37
2019-04-05T01:11:58.378Z,25.07
2019-04-05T01:14:25.725Z,23.67
2019-04-05T01:16:53.136Z,26.20
2019-04-05T01:19:20.467Z,25.73
2019-04-05T01:21:47.814Z,25.03
2019-04-05T01:24:15.138Z,22.00
2019-04-05T01:26:42.911Z,23.30
2019-04-05T01:29:10.231Z,22.37
2019-04-05T01:31:37.597Z,22.83
2019-04-05T01:34:05.629Z,25.03
2019-04-05T01:36:33.078Z,23.73
2019-04-05T01:39:00.466Z,22.50
2019-04-05T01:41:27.894Z,21.73
2019-04-05T01:43:55.210Z,20.43
2019-04-05T01:46:22.551Z,26.53
2019-04-05T01:48:49.984Z,19.27
2019-04-05T01:51:17.348Z,22.37
2019-04-05T01:53:44.773Z,18.83
2019-04-05T01:56:12.085Z,20.33
2019-04-05T01:58:39.438Z,20.43
2019-04-05T02:01:06.820Z,20.23
2019-04-05T02:03:34.158Z,24.87
2019-04-05T02:06:01.473Z,24.03
2019-04-05T02:08:28.897Z,22.10
2019-04-05T02:10:56.334Z,21.50
2019-04-05T02:13:23.728Z,19.53
2019-04-05T02:15:51.073Z,19.97
2019-04-05T02:18:18.483Z,22.93
2019-04-05T02:20:45.806Z,19.97
2019-04-05T02:23:13.522Z,26.13
2019-04-05T02:25:40.887Z,21.47
2019-04-05T02:28:08.236Z,21.53
2019-04-05T02:30:35.565Z,20.63
2019-04-05T02:33:02.896Z,20.10
2019-04-05T02:35:30.247Z,20.10
2019-04-05T02:37:57.643Z,24.20
2019-04-05T02:40:25.200Z,19.90
2019-04-05T02:42:52.671Z,22.83
2019-04-05T02:45:20.029Z,20.57
2019-04-05T02:47:54.946Z,23.73
2019-04-05T02:50:22.824Z,19.93
2019-04-05T02:52:50.149Z,20.53
2019-04-05T02:55:17.597Z,22.77
2019-04-05T02:57:45.016Z,20.13
2019-04-05T03:00:12.316Z,18.57
2019-04-05T03:02:39.659Z,23.93
2019-04-05T03:05:07.350Z,24.60
2019-04-05T03:07:34.710Z,19.50
2019-04-05T03:10:02.071Z,22.37
2019-04-05T03:12:29.431Z,22.73
2019-04-05T03:14:56.851Z,21.53
2019-04-05T03:17:24.181Z,18.93
2019-04-05T03:19:52.005Z,19.80
2019-04-05T03:22:19.321Z,25.07
2019-04-05T03:24:47.040Z,23.43
2019-04-05T03:27:15.053Z,20.67
2019-04-05T03:29:42.558Z,18.67
2019-04-05T03:32:10.246Z,23.50
2019-04-05T03:34:37.593Z,24.70
2019-04-05T03:37:04.912Z,24.17
2019-04-05T03:39:32.319Z,25.17
2019-04-05T03:41:59.753Z,25.73
2019-04-05T03:44:27.079Z,22.20
2019-04-05T03:46:56.944Z,25.37
2019-04-05T03:49:23.412Z,31.70
2019-04-05T03:51:50.797Z,23.77
2019-04-05T03:54:18.150Z,24.60
2019-04-05T03:56:45.502Z,24.53
2019-04-05T03:59:12.892Z,20.93
2019-04-05T04:01:40.253Z,25.07
2019-04-05T04:04:07.602Z,40.47
2019-04-05T04:06:35.019Z,25.23
2019-04-05T04:09:02.543Z,25.77
2019-04-05T04:11:29.956Z,23.80
2019-04-05T04:13:57.263Z,20.67
2019-04-05T04:16:24.612Z,19.83
2019-04-05T04:18:52.008Z,21.00
2019-04-05T04:21:24.183Z,22.00
2019-04-05T04:23:51.501Z,22.80
2019-04-05T04:26:19.626Z,21.30
2019-04-05T04:28:47.230Z,22.63
2019-04-05T04:31:14.785Z,20.80
2019-04-05T04:33:42.213Z,21.43
2019-04-05T04:36:12.837Z,22.77
2019-04-05T04:38:39.203Z,27.13
2019-04-05T04:41:06.544Z,23.63
2019-04-05T04:43:33.861Z,21.87
2019-04-05T04:46:01.201Z,22.40
2019-04-05T04:48:28.606Z,23.83
2019-04-05T04:50:56.012Z,26.57
2019-04-05T04:53:23.367Z,22.37
2019-04-05T04:55:50.817Z,24.03
2019-04-05T04:58:18.158Z,21.13
2019-04-05T05:00:45.497Z,17.77
2019-04-05T05:03:12.848Z,21.87
2019-04-05T05:05:40.203Z,20.57
2019-04-05T05:08:07.545Z,18.20
2019-04-05T05:10:34.917Z,23.17
2019-04-05T05:13:02.347Z,19.03
2019-04-05T05:15:29.664Z,21.07
2019-04-05T05:17:58.714Z,22.33
2019-04-05T05:20:26.070Z,19.60
2019-04-05T05:22:53.503Z,21.73
2019-04-05T05:25:20.855Z,20.03
2019-04-05T05:27:49.420Z,27.17
2019-04-05T05:30:16.733Z,18.33
2019-04-05T05:32:44.087Z,23.63
2019-04-05T05:35:11.475Z,20.33
2019-04-05T05:37:38.911Z,19.00
2019-04-05T05:40:06.792Z,16.87
2019-04-05T05:42:34.139Z,24.07
2019-04-05T05:45:01.505Z,21.17
2019-04-05T05:47:28.878Z,18.83
2019-04-05T05:49:56.342Z,24.50
2019-04-05T05:52:23.832Z,18.77
2019-04-05T05:54:51.219Z,20.73
2019-04-05T05:57:18.574Z,18.53
2019-04-05T05:59:45.881Z,18.30
2019-04-05T06:02:13.386Z,18.10
2019-04-05T06:04:40.696Z,21.07
2019-04-05T06:07:08.087Z,20.57
2019-04-05T06:09:35.450Z,20.23
2019-04-05T06:12:02.801Z,17.27
2019-04-05T06:14:30.123Z,18.33
2019-04-05T06:16:57.476Z,25.97
2019-04-05T06:19:24.828Z,18.90
2019-04-05T06:21:52.255Z,25.30
2019-04-05T06:24:19.563Z,22.47
2019-04-05T06:26:46.938Z,24.80
2019-04-05T06:29:14.711Z,24.97
2019-04-05T06:31:42.087Z,21.73
2019-04-05T06:34:09.427Z,26.10
2019-04-05T06:36:36.749Z,24.03
2019-04-05T06:39:06.152Z,20.17
2019-04-05T06:41:33.550Z,19.20
2019-04-05T06:44:00.860Z,19.03
2019-04-05T06:46:28.214Z,19.37
2019-04-05T06:48:55.660Z,17.73
2019-04-05T06:51:23.060Z,19.77
2019-04-05T06:53:50.382Z,26.03
2019-04-05T06:56:17.738Z,21.13
2019-04-05T06:58:46.451Z,20.47
2019-04-05T07:01:14.227Z,21.20
2019-04-05T07:03:41.633Z,22.87
2019-04-05T07:06:08.995Z,20.00
2019-04-05T07:08:36.349Z,20.67
2019-04-05T07:11:03.820Z,17.93
2019-04-05T07:13:31.212Z,21.60
2019-04-05T07:15:58.546Z,22.13
2019-04-05T07:18:34.003Z,26.30
2019-04-05T07:20:57.729Z,19.20
2019-04-05T07:23:24.248Z,20.17
2019-04-05T07:25:51.666Z,19.30
2019-04-05T07:28:19.013Z,23.30
2019-04-05T07:30:46.467Z,24.03
2019-04-05T07:33:13.774Z,22.17
2019-04-05T07:35:41.099Z,18.67
2019-04-05T07:38:09.805Z,14.70
2019-04-05T07:40:37.269Z,21.83
2019-04-05T07:43:04.716Z,26.13
2019-04-05T07:45:32.095Z,17.83
2019-04-05T07:47:59.421Z,22.67
2019-04-05T07:50:26.792Z,22.60
2019-04-05T07:52:54.132Z,14.33
2019-04-05T07:55:21.500Z,14.37
2019-04-05T07:57:49.026Z,17.53
2019-04-05T08:00:17.999Z,20.00
2019-04-05T08:02:45.423Z,29.90
2019-04-05T08:05:12.828Z,20.10
2019-04-05T08:07:41.804Z,26.70
2019-04-05T08:10:09.308Z,21.43
2019-04-05T08:12:36.733Z,19.30
2019-04-05T08:15:07.157Z,17.57
2019-04-05T08:17:35.406Z,17.63
2019-04-05T08:20:02.832Z,23.37
2019-04-05T08:22:32.323Z,18.77
2019-04-05T08:24:59.135Z,15.07
2019-04-05T08:27:26.472Z,16.90
2019-04-05T08:29:53.793Z,14.53
2019-04-05T08:32:21.145Z,14.27
2019-04-05T08:34:48.477Z,13.00
2019-04-05T08:37:15.810Z,11.70
2019-04-05T08:39:43.140Z,11.23
2019-04-05T08:42:10.997Z,14.23
2019-04-05T08:44:38.480Z,12.80
2019-04-05T08:47:05.831Z,10.00
2019-04-05T08:49:33.149Z,11.20
2019-04-05T08:52:00.498Z,12.23
2019-04-05T08:54:33.120Z,11.33
2019-04-05T08:56:56.947Z,9.97
2019-04-05T08:59:24.260Z,11.33
2019-04-05T09:01:51.557Z,11.97
2019-04-05T09:04:18.952Z,11.73
2019-04-05T09:06:46.383Z,10.53
2019-04-05T09:09:13.693Z,9.53
2019-04-05T09:11:41.057Z,10.50
2019-04-05T09:14:08.379Z,11.40
2019-04-05T09:16:35.779Z,8.60
2019-04-05T09:19:03.113Z,11.13
2019-04-05T09:21:30.441Z,9.93
2019-04-05T09:23:59.318Z,11.70
2019-04-05T09:26:26.883Z,6.87
2019-04-05T09:28:54.243Z,6.70
2019-04-05T09:31:21.581Z,8.20
2019-04-05T09:33:49.340Z,6.90
2019-04-05T09:36:16.763Z,10.73
2019-04-05T09:38:44.167Z,7.53
2019-04-05T09:41:11.597Z,6.97
2019-04-05T09:43:39.056Z,6.30
2019-04-05T09:46:06.450Z,7.57
2019-04-05T09:48:33.870Z,8.87
2019-04-05T09:51:01.178Z,9.33
2019-04-05T09:53:28.492Z,7.43
2019-04-05T09:55:55.911Z,9.23
2019-04-05T09:58:23.169Z,9.53
2019-04-05T10:00:50.587Z,6.43
2019-04-05T10:03:18.438Z,7.00
2019-04-05T10:05:45.825Z,8.77
2019-04-05T10:08:13.384Z,9.83
2019-04-05T10:10:40.720Z,9.47
2019-04-05T10:13:09.750Z,8.87
2019-04-05T10:15:37.185Z,6.75
2019-04-05T10:18:04.500Z,8.03
2019-04-05T10:20:31.813Z,5.47
2019-04-05T10:22:59.164Z,5.70
2019-04-05T10:25:26.829Z,5.47
2019-04-05T10:27:54.155Z,5.97
2019-04-05T10:30:21.575Z,6.30
2019-04-05T10:32:48.935Z,6.37
2019-04-05T10:35:16.287Z,4.83
2019-04-05T10:37:43.626Z,5.92
2019-04-05T10:40:10.979Z,4.33
2019-04-05T10:42:38.303Z,11.00
2019-04-05T10:45:07.309Z,4.58
2019-04-05T10:47:34.649Z,4.97
2019-04-05T10:50:03.637Z,4.37
2019-04-05T10:52:31.067Z,7.55
2019-04-05T10:54:58.382Z,5.10
2019-04-05T10:57:25.774Z,8.10
2019-04-05T10:59:53.082Z,6.03
2019-04-05T11:02:20.443Z,5.67
2019-04-05T11:04:47.765Z,5.97
2019-04-05T11:07:15.511Z,6.55
2019-04-05T11:09:42.905Z,11.73
2019-04-05T11:12:10.333Z,6.83
2019-04-05T11:14:37.666Z,6.58
2019-04-05T11:17:05.175Z,11.50
2019-04-05T11:19:36.201Z,10.38
2019-04-05T11:22:01.782Z,7.67
2019-04-05T11:24:29.193Z,7.87
2019-04-05T11:26:56.493Z,9.60
2019-04-05T11:29:23.831Z,6.35
2019-04-05T11:31:57.048Z,6.20
2019-04-05T11:34:20.230Z,5.62
2019-04-05T11:36:47.574Z,7.40
2019-04-05T11:39:14.924Z,5.83
2019-04-05T11:41:42.323Z,7.75
2019-04-05T11:44:09.677Z,5.87
2019-04-05T11:46:36.980Z,5.12
2019-04-05T11:49:04.791Z,6.72
2019-04-05T11:51:32.175Z,6.28
2019-04-05T11:53:59.557Z,9.40
2019-04-05T11:56:26.899Z,7.00
2019-04-05T11:58:54.235Z,6.35
2019-04-05T12:01:23.602Z,5.97
2019-04-05T12:04:03.467Z,6.75
2019-04-05T12:06:30.848Z,5.03
2019-04-05T12:08:59.325Z,8.73
2019-04-05T12:11:27.311Z,7.70
2019-04-05T12:13:54.736Z,9.48
2019-04-05T12:16:22.610Z,5.58
2019-04-05T12:18:50.000Z,6.33
2019-04-05T12:21:17.316Z,7.37
2019-04-05T12:23:44.670Z,6.15
2019-04-05T12:26:11.979Z,7.20
2019-04-05T12:28:39.342Z,5.75
2019-04-05T12:31:06.729Z,6.60
2019-04-05T12:33:34.053Z,4.90
2019-04-05T12:36:01.462Z,4.60
2019-04-05T12:38:33.014Z,4.75
2019-04-05T12:41:01.274Z,7.03
2019-04-05T12:43:28.622Z,7.62
2019-04-05T12:45:55.995Z,5.03
2019-04-05T12:48:23.352Z,6.12
2019-04-05T12:51:00.605Z,5.40
2019-04-05T12:53:19.645Z,3.70
2019-04-05T12:55:47.054Z,5.47
2019-04-05T12:58:14.377Z,5.00
2019-04-05T13:00:41.773Z,4.03
2019-04-05T13:03:09.038Z,5.53
2019-04-05T13:05:36.405Z,6.95
2019-04-05T13:08:03.792Z,4.58
2019-04-05T13:10:31.099Z,5.72
2019-04-05T13:12:58.424Z,4.78
2019-04-05T13:15:26.029Z,4.53
2019-04-05T13:17:53.372Z,5.00
2019-04-05T13:20:20.759Z,5.87
2019-04-05T13:22:48.101Z,5.12
2019-04-05T13:25:15.426Z,5.65
2019-04-05T13:27:42.766Z,7.78
2019-04-05T13:30:10.096Z,4.62
2019-04-05T13:32:37.402Z,5.70
2019-04-05T13:35:05.410Z,7.33
2019-04-05T13:37:32.802Z,5.40
2019-04-05T13:40:00.538Z,6.30
2019-04-05T13:42:31.302Z,8.65
2019-04-05T13:44:57.118Z,7.97
2019-04-05T13:47:24.446Z,7.25
2019-04-05T13:49:51.793Z,10.60
2019-04-05T13:52:19.131Z,12.53
2019-04-05T13:54:46.670Z,8.53
2019-04-05T13:57:14.059Z,6.60
2019-04-05T13:59:41.368Z,7.87
2019-04-05T14:02:09.062Z,11.68
2019-04-05T14:04:36.412Z,6.62
2019-04-05T14:07:03.997Z,7.20
2019-04-05T14:09:31.723Z,6.05
2019-04-05T14:11:59.298Z,10.07
2019-04-05T14:14:28.369Z,5.72
2019-04-05T14:16:55.776Z,7.15
2019-04-05T14:19:23.105Z,7.33
2019-04-05T14:21:53.773Z,6.17
2019-04-05T14:24:21.469Z,10.08
2019-04-05T14:26:50.418Z,8.83
2019-04-05T14:29:17.865Z,7.40
2019-04-05T14:31:45.275Z,6.28
2019-04-05T14:34:12.596Z,8.45
2019-04-05T14:36:39.925Z,6.33
2019-04-05T14:39:09.720Z,11.80
2019-04-05T14:41:37.129Z,7.65
2019-04-05T14:44:04.498Z,6.03
2019-04-05T14:46:31.841Z,5.33
2019-04-05T14:49:00.728Z,6.45
2019-04-05T14:51:28.702Z,5.08
2019-04-05T14:53:56.737Z,5.35
2019-04-05T14:56:24.077Z,5.25
2019-04-05T14:58:51.491Z,9.38
2019-04-05T15:01:19.043Z,12.30
2019-04-05T15:03:46.453Z,15.63
2019-04-05T15:06:13.832Z,11.53
2019-04-05T15:08:41.154Z,10.45
2019-04-05T15:11:10.904Z,10.78
2019-04-05T15:13:37.577Z,11.83
2019-04-05T15:16:04.985Z,11.65
2019-04-05T15:18:32.355Z,11.55
2019-04-05T15:20:59.629Z,9.00
2019-04-05T15:23:26.975Z,9.75
2019-04-05T15:25:55.127Z,11.22
2019-04-05T15:28:24.586Z,13.25
2019-04-05T15:30:55.670Z,7.05
2019-04-05T15:33:20.733Z,7.62
2019-04-05T15:35:48.244Z,6.67
2019-04-05T15:38:15.665Z,7.12
2019-04-05T15:40:43.281Z,7.15
2019-04-05T15:43:10.861Z,7.93
2019-04-05T15:45:38.735Z,8.30
2019-04-05T15:48:07.605Z,8.88
2019-04-05T15:50:35.132Z,8.98
2019-04-05T15:53:02.966Z,8.87
2019-04-05T15:55:33.417Z,7.40
2019-04-05T15:58:01.436Z,8.40
2019-04-05T16:00:44.271Z,9.50
2019-04-05T16:03:12.067Z,11.48
2019-04-05T16:05:39.637Z,9.18
2019-04-05T16:08:07.035Z,9.85
2019-04-05T16:10:34.484Z,12.70
2019-04-05T16:13:01.761Z,9.80
2019-04-05T16:15:29.279Z,9.83
2019-04-05T16:17:56.680Z,9.08
2019-04-05T16:20:24.456Z,9.27
2019-04-05T16:22:51.870Z,7.80
2019-04-05T16:25:19.333Z,10.30
2019-04-05T16:27:46.769Z,10.50
2019-04-05T16:30:14.156Z,13.22
2019-04-05T16:32:41.683Z,12.50
2019-04-05T16:35:09.152Z,12.93
2019-04-05T16:37:36.477Z,14.70
2019-04-05T16:40:05.376Z,11.10
2019-04-05T16:42:32.807Z,15.60
2019-04-05T16:45:00.122Z,13.20
2019-04-05T16:47:27.544Z,16.80
2019-04-05T16:49:55.062Z,12.97
2019-04-05T16:52:22.530Z,11.37
2019-04-05T16:54:49.913Z,10.93
2019-04-05T16:57:17.361Z,9.67
2019-04-05T16:59:44.735Z,15.67
2019-04-05T17:02:12.299Z,12.90
2019-04-05T17:04:39.679Z,11.10
2019-04-05T17:07:07.098Z,12.33
2019-04-05T17:09:34.596Z,10.53
2019-04-05T17:12:01.963Z,14.73
2019-04-05T17:14:29.285Z,14.40
2019-04-05T17:16:56.856Z,17.07
2019-04-05T17:19:24.190Z,18.23
2019-04-05T17:21:51.576Z,19.53
2019-04-05T17:24:18.926Z,12.70
2019-04-05T17:26:46.284Z,13.13
2019-04-05T17:29:13.611Z,18.87
2019-04-05T17:31:41.022Z,16.40
2019-04-05T17:34:08.326Z,16.67
2019-04-05T17:36:35.753Z,15.40
2019-04-05T17:39:04.408Z,14.73
2019-04-05T17:41:31.824Z,16.00
2019-04-05T17:43:59.277Z,15.73
2019-04-05T17:46:26.618Z,18.33
2019-04-05T17:48:54.079Z,15.40
2019-04-05T17:51:21.364Z,19.83
2019-04-05T17:53:48.783Z,15.03
2019-04-05T17:56:16.118Z,20.93
2019-04-05T17:58:43.508Z,22.97
2019-04-05T18:01:10.952Z,21.40
2019-04-05T18:03:38.443Z,19.30
2019-04-05T18:06:05.832Z,19.23
2019-04-05T18:08:33.310Z,23.70
2019-04-05T18:11:00.830Z,27.53
2019-04-05T18:13:28.275Z,27.30
2019-04-05T18:15:55.601Z,26.23
2019-04-05T18:18:23.149Z,26.37
2019-04-05T18:20:50.510Z,24.93
2019-04-05T18:23:24.858Z,22.20
2019-04-05T18:25:46.931Z,26.07
2019-04-05T18:28:14.405Z,22.67
2019-04-05T18:30:41.820Z,23.13
2019-04-05T18:33:09.209Z,28.40
2019-04-05T18:35:36.626Z,28.20
2019-04-05T18:38:04.037Z,39.33
2019-04-05T18:40:39.855Z,38.83
2019-04-05T18:43:00.457Z,43.13
2019-04-05T18:45:27.998Z,41.97
2019-04-05T18:47:55.416Z,48.30
2019-04-05T18:50:22.815Z,47.50
2019-04-05T18:52:50.196Z,55.47
2019-04-05T18:55:17.773Z,49.70
2019-04-05T18:57:45.185Z,53.87
2019-04-05T19:00:12.681Z,52.87
2019-04-05T19:02:40.101Z,48.73
2019-04-05T19:05:07.804Z,50.17
2019-04-05T19:07:35.187Z,46.10
2019-04-05T19:10:02.608Z,42.37
2019-04-05T19:12:31.663Z,39.60
2019-04-05T19:14:59.070Z,35.57
2019-04-05T19:17:26.386Z,41.23
2019-04-05T19:19:53.898Z,33.33
2019-04-05T19:22:21.164Z,38.93
2019-04-05T19:24:48.603Z,36.80
2019-04-05T19:27:16.076Z,32.17
2019-04-05T19:29:43.433Z,32.87
2019-04-05T19:49:34.308Z,33.80
2019-04-05T19:52:01.697Z,35.03
2019-04-05T19:54:29.053Z,35.87
2019-04-05T19:56:56.477Z,33.13
2019-04-05T19:59:23.755Z,29.47
2019-04-05T20:01:51.176Z,35.73
2019-04-05T20:04:18.924Z,31.73
2019-04-05T20:06:46.243Z,34.70
2019-04-05T20:09:13.815Z,36.07
2019-04-05T20:11:41.221Z,37.73
2019-04-05T20:14:08.694Z,38.70
2019-04-05T20:16:36.150Z,40.77
2019-04-05T20:19:03.533Z,37.67
2019-04-05T20:21:31.027Z,42.40
2019-04-05T20:23:58.363Z,38.70
2019-04-05T20:26:25.903Z,36.73
2019-04-05T20:28:53.333Z,42.07
2019-04-05T20:31:20.878Z,39.17
2019-04-05T20:33:48.318Z,50.33
2019-04-05T20:36:15.738Z,45.33
2019-04-05T20:38:43.077Z,44.83
2019-04-05T20:41:10.457Z,45.80
2019-04-05T20:43:37.917Z,41.60
2019-04-05T20:46:05.383Z,41.37
2019-04-05T20:48:32.752Z,41.13
2019-04-05T20:51:00.162Z,38.07
2019-04-05T20:53:27.502Z,39.47
2019-04-05T20:55:54.817Z,42.30
2019-04-05T20:58:22.178Z,40.83
2019-04-05T21:00:49.557Z,41.60
2019-04-05T21:03:17.289Z,43.13
2019-04-05T21:05:44.651Z,50.00
2019-04-05T21:08:12.071Z,43.97
2019-04-05T21:10:39.480Z,42.53
2019-04-05T21:13:06.919Z,46.93
2019-04-05T21:15:34.337Z,54.50
2019-04-05T21:18:01.835Z,58.37
2019-04-05T21:20:29.229Z,56.03
2019-04-05T21:22:56.636Z,51.23
2019-04-05T21:25:24.064Z,48.87
2019-04-05T21:27:51.441Z,52.43
2019-04-05T21:30:18.831Z,48.80
2019-04-05T21:32:46.341Z,47.90
2019-04-05T21:35:13.663Z,49.07
2019-04-05T21:37:41.096Z,41.97
2019-04-05T21:40:08.527Z,43.63
2019-04-05T21:42:35.929Z,43.80
2019-04-05T21:45:03.589Z,47.07
2019-04-05T21:47:30.993Z,43.10
2019-04-05T21:49:58.423Z,45.27
2019-04-05T21:52:25.859Z,43.67
2019-04-05T21:54:53.171Z,38.83
2019-04-05T21:57:20.557Z,44.60
2019-04-05T21:59:47.952Z,47.47
2019-04-05T22:02:15.295Z,43.17
2019-04-05T22:04:42.651Z,41.53
2019-04-05T22:07:10.248Z,39.87
2019-04-05T22:09:37.617Z,35.47
2019-04-05T22:12:05.029Z,35.53
2019-04-05T22:14:32.384Z,33.30
2019-04-05T22:16:59.739Z,35.77
2019-04-05T22:19:27.108Z,33.40
2019-04-05T22:21:54.513Z,34.30
2019-04-05T22:24:21.966Z,31.63
2019-04-05T22:26:49.332Z,31.23
2019-04-05T22:29:16.747Z,35.47
2019-04-05T22:31:44.211Z,35.67
2019-04-05T22:34:11.625Z,32.73
2019-04-05T22:36:38.969Z,31.80
2019-04-05T22:39:06.641Z,33.97
2019-04-05T22:41:33.980Z,32.73
2019-04-05T22:44:01.400Z,33.23
2019-04-05T22:46:28.799Z,37.10
2019-04-05T22:48:56.199Z,37.30
2019-04-05T22:51:23.522Z,34.40
2019-04-05T22:53:50.934Z,33.33
2019-04-05T22:56:18.381Z,33.00
2019-04-05T22:58:45.779Z,38.67
2019-04-05T23:01:13.183Z,36.13
2019-04-05T23:03:40.636Z,36.53
2019-04-05T23:06:07.958Z,38.97
2019-04-05T23:08:35.373Z,34.13
2019-04-05T23:11:03.085Z,34.87
2019-04-05T23:13:30.512Z,38.77
2019-04-05T23:15:57.864Z,36.83
2019-04-05T23:18:25.295Z,38.83
2019-04-05T23:20:52.700Z,37.87
2019-04-05T23:23:20.026Z,38.10
2019-04-05T23:25:47.410Z,39.77
2019-04-05T23:28:14.873Z,36.70
2019-04-05T23:30:42.304Z,35.83
2019-04-05T23:33:09.651Z,39.57
2019-04-05T23:35:36.992Z,33.77
2019-04-05T23:38:04.399Z,33.13
2019-04-05T23:40:31.820Z,37.30
2019-04-05T23:42:59.145Z,34.27
2019-04-05T23:45:26.518Z,37.87
2019-04-05T23:47:53.858Z,36.33
2019-04-05T23:50:21.523Z,34.30
2019-04-05T23:52:49.289Z,38.23
2019-04-05T23:55:16.683Z,37.03
2019-04-05T23:57:44.056Z,41.63
